Kirkwood, Delaware
Current Conditions -  °F | °C
As of 5:51 AM on Sunday 21 Dec 2014 (Local Time) from KILG Reporting Station
Haze Haze  
Wind Chill: 24°   Ceiling: 7500
Heat Index: 29°   Visibility: 6mi
Dew Point: 24°   Wind: 5mph
Humidity: 82%   Direction: 320°NW
Pressure: 30.32"   Gusts: NA
Location:  39.57°N, 75.7°W
Report Text: KILG 211051Z 32004KT 6SM HZ OVC075 M02/M04 A3032 RMK AO2 SLP268 T10171044
Loading
Personal Weather Stations






























Interactive Weather Map New forecast layout! Learn more

10-Day Weather Forecast

Advertisements
Track Severe Weather on mobile